Data for 02/17/2010

Time Sea-Level Adjusted Pressure Absolute Pressure Temperature Relative Humidity Dew Point   
(mb) (inHg) (mb) (inHg) (C) (F) (%) (C) (F)
00:05 1020 30.12 849 25.07 2.1 35.7 80 -1 30.3
00:10 1020 30.12 849 25.07 2.1 35.7 80 -1 30.2
00:15 1020 30.12 849 25.07 1.9 35.5 81 -0.9 30.3
00:20 1020 30.12 849 25.07 1.6 34.9 82 -1.1 30
00:25 1020 30.12 849 25.07 1.5 34.7 82 -1.3 29.7
00:30 1020 30.12 849 25.07 1.6 35 80 -1.4 29.5
00:35 1020 30.12 849 25.07 1.3 34.3 84 -1.1 30
00:40 1020 30.12 849 25.07 1.1 34 82 -1.6 29.2
00:45 1020 30.12 849 25.07 1.2 34.1 83 -1.4 29.4
00:50 1020 30.12 849 25.07 1.3 34.3 82 -1.4 29.5
00:55 1020 30.12 849 25.07 1.3 34.4 82 -1.4 29.4
01:00 1020 30.12 849 25.07 1.3 34.3 82 -1.4 29.5
01:05 1020 30.12 849 25.07 1.1 34 82 -1.7 29
01:10 1020 30.12 849 25.07 1.2 34.2 82 -1.5 29.3
01:15 1020 30.12 849 25.07 1.3 34.4 79 -1.9 28.7
01:20 1020 30.12 849 25.07 1.7 35 79 -1.6 29.1
01:25 1020 30.12 849 25.07 1.8 35.2 79 -1.5 29.4
01:30 1020 30.12 849 25.07 1.4 34.6 83 -1.1 30
01:35 1020 30.12 849 25.07 1 33.8 85 -1.3 29.7
01:40 1020 30.12 849 25.07 0.8 33.4 86 -1.3 29.7
01:45 1020 30.12 849 25.07 0.7 33.3 86 -1.3 29.6
01:50 1020 30.12 849 25.07 0.6 33.1 86 -1.4 29.5
01:55 1020 30.12 849 25.07 0.4 32.8 86 -1.7 29
02:00 1020 30.12 849 25.07 0.4 32.7 86 -1.7 28.9
02:05 1020 30.12 849 25.07 0.4 32.6 86 -1.7 29
02:10 1020 30.12 849 25.07 0.3 32.6 86 -1.7 29
02:15 1020 30.12 849 25.07 0.5 32.8 85 -1.7 28.9
02:20 1020 30.12 849 25.07 0.4 32.8 87 -1.6 29.2
02:25 1020 30.12 849 25.07 0.5 32.8 87 -1.4 29.5
02:30 1020 30.12 849 25.07 0.3 32.5 86 -1.8 28.8
02:35 1020 30.12 849 25.07 -0.4 31.3 88 -2.2 28.1
02:40 1020 30.12 849 25.07 -0.2 31.7 87 -2.1 28.3
02:45 1020 30.12 849 25.07 0.2 32.4 86 -1.8 28.7
02:50 1020 30.12 849 25.07 0.3 32.5 86 -1.8 28.8
02:55 1020 30.12 849 25.07 0.4 32.8 86 -1.6 29.1
03:00 1020 30.12 849 25.07 0.6 33 85 -1.7 28.9
03:05 1020 30.12 849 25.07 0.6 33 84 -1.8 28.8
03:10 1020 30.12 849 25.07 0.7 33.3 83 -1.8 28.8
03:15 1020 30.12 849 25.07 0.8 33.5 83 -1.8 28.8
03:20 1020 30.12 849 25.07 0.8 33.4 83 -1.8 28.7
03:25 1020 30.12 849 25.07 0.6 33.1 83 -2 28.4
03:30 1020 30.12 849 25.07 0.7 33.2 83 -2 28.4
03:35 1020 30.12 849 25.07 0.7 33.3 82 -2 28.4
03:40 1020 30.12 849 25.07 0.6 33.1 83 -2 28.5
03:45 1020 30.12 849 25.07 0.6 33 82 -2.1 28.2
03:50 1020 30.12 849 25.07 0.7 33.2 82 -2 28.3
03:55 1020 30.12 849 25.07 0.5 32.9 82 -2.2 28.1
04:00 1020 30.12 849 25.07 0.5 32.8 82 -2.2 28.1
04:05 1020 30.12 849 25.07 0.5 32.9 82 -2.2 28
04:10 1020 30.12 849 25.07 0.6 33.1 82 -2.1 28.1
04:15 1020 30.12 849 25.07 0.6 33 82 -2.1 28.2
04:20 1020 30.12 849 25.07 0.5 32.9 82 -2.2 28.1
04:25 1020 30.12 849 25.07 0.4 32.8 82 -2.3 27.8
04:30 1020 30.12 849 25.07 0.3 32.5 83 -2.3 27.8
04:35 1020 30.12 849 25.07 0.2 32.4 83 -2.3 27.8
04:40 1020 30.12 849 25.07 0.2 32.3 81 -2.7 27.1
04:45 1020 30.12 849 25.07 -0.4 31.3 84 -2.8 27
04:50 1020 30.12 849 25.07 -0.6 30.9 85 -2.8 26.9
04:55 1020 30.12 849 25.07 -0.7 30.7 85 -2.9 26.8
05:00 1020 30.12 849 25.07 -0.7 30.8 85 -2.9 26.8
05:05 1020 30.12 849 25.07 -0.4 31.2 84 -2.7 27.1
05:10 1020 30.12 849 25.07 -0.3 31.5 83 -2.9 26.8
05:15 1020 30.12 849 25.07 0.1 32.2 82 -2.7 27.2
05:20 1020 30.12 849 25.07 0.6 33 80 -2.5 27.5
05:25 1020 30.12 849 25.07 0.6 33 79 -2.6 27.3
05:30 1020 30.12 849 25.07 0.6 33.1 80 -2.5 27.6
05:35 1020 30.12 849 25.07 0.7 33.3 79 -2.5 27.5
05:40 1020 30.12 849 25.07 0.7 33.2 79 -2.6 27.4
05:45 1020 30.12 849 25.07 0.5 32.9 80 -2.5 27.5
05:50 1020 30.12 849 25.07 0.5 32.9 79 -2.7 27.2
05:55 1020 30.12 849 25.07 0.3 32.6 80 -2.7 27.1
06:00 1020 30.12 849 25.07 -0.2 31.6 82 -2.8 26.9
06:05 1020 30.12 849 25.07 -0.5 31.1 84 -2.9 26.8
06:10 1020 30.12 849 25.07 -0.9 30.4 87 -2.8 26.9
06:15 1020 30.12 849 25.07 -1 30.2 88 -2.8 27
06:20 1020 30.12 849 25.07 -0.8 30.6 87 -2.7 27.2
06:25 1020 30.12 849 25.07 -0.7 30.7 87 -2.7 27.2
06:30 1020 30.12 849 25.07 -0.6 30.9 86 -2.7 27.2
06:35 1020 30.12 849 25.07 -0.5 31.1 85 -2.7 27.2
06:40 1020 30.12 849 25.07 -0.5 31.1 85 -2.7 27.2
06:45 1020 30.12 849 25.07 -0.5 31.2 85 -2.6 27.3
06:50 1020 30.12 849 25.07 -0.3 31.4 84 -2.7 27.2
06:55 1020 30.12 849 25.07 -0.3 31.5 84 -2.7 27.2
07:00 1020 30.12 849 25.07 -0.3 31.4 84 -2.7 27.1
07:05 1020 30.12 849 25.07 -0.3 31.5 83 -2.8 27
07:10 1020 30.12 849 25.07 -0 31.9 83 -2.6 27.3
07:15 1020 30.12 849 25.07 0.2 32.3 82 -2.5 27.5
07:20 1020 30.12 849 25.07 0.2 32.4 83 -2.4 27.6
07:25 1020 30.12 849 25.07 0.2 32.3 82 -2.5 27.5
07:30 1020 30.12 849 25.07 0.2 32.4 83 -2.4 27.6
07:35 1020 30.12 849 25.07 0.3 32.5 82 -2.4 27.7
07:40 1020 30.12 849 25.07 0.4 32.7 82 -2.3 27.9
07:45 1020 30.12 849 25.07 0.7 33.2 81 -2.2 28.1
07:50 1020 30.12 849 25.07 0.6 33 83 -2 28.4
07:55 1020 30.12 849 25.07 0.1 32.2 83 -2.4 27.7
08:00 1020 30.12 849 25.07 -0.1 31.8 84 -2.5 27.4
08:05 1020 30.12 849 25.07 -0.1 31.7 84 -2.6 27.4
08:10 1020 30.12 849 25.07 -0.1 31.8 84 -2.6 27.4
08:15 1020 30.12 849 25.07 -0 31.9 83 -2.5 27.4
08:20 1020 30.12 849 25.07 0.3 32.5 83 -2.4 27.8
08:25 1020 30.12 849 25.07 0.5 33 83 -2.1 28.2
08:30 1020 30.12 849 25.07 0.4 32.7 83 -2.1 28.1
08:35 1020 30.12 849 25.07 0.1 32.2 84 -2.3 27.8
08:40 1020 30.12 849 25.07 0.2 32.3 83 -2.4 27.7
08:45 1020 30.12 849 25.07 0.3 32.6 82 -2.4 27.8
08:50 1020 30.12 849 25.07 0.6 33.1 80 -2.5 27.5
08:55 1020 30.12 849 25.07 1 33.7 79 -2.3 27.8
09:00 1020 30.12 849 25.07 1.2 34.2 77 -2.4 27.7
09:05 1020 30.12 849 25.07 1.4 34.6 75 -2.6 27.3
09:10 1020 30.12 849 25.07 1.4 34.4 76 -2.4 27.6
09:15 1020 30.12 849 25.07 1.3 34.4 76 -2.5 27.6
09:20 1020 30.12 849 25.07 1.7 35.1 74 -2.5 27.6
09:25 1020 30.12 849 25.07 2.1 35.8 73 -2.3 27.9
09:30 1020 30.12 849 25.07 2.3 36.1 70 -2.6 27.3
09:35 1020 30.12 849 25.07 2.3 36.2 71 -2.4 27.6
09:40 1020 30.12 849 25.07 2.6 36.8 67 -2.9 26.9
09:45 1020 30.12 849 25.07 2.8 37 67 -2.7 27.1
09:50 1020 30.12 849 25.07 2.8 37.1 66 -2.8 26.9
09:55 1020 30.12 849 25.07 2.8 37.1 67 -2.6 27.3
10:00 1020 30.12 849 25.07 2.9 37.2 66 -2.9 26.7
10:05 1020 30.12 849 25.07 2.9 37.2 66 -2.8 26.9
10:10 1020 30.12 849 25.07 2.9 37.3 66 -2.8 26.9
10:15 1020 30.12 849 25.07 2.9 37.2 67 -2.7 27.1
10:20 1020 30.12 849 25.07 2.9 37.2 66 -2.8 27
10:25 1020 30.12 849 25.07 2.8 37.1 67 -2.6 27.2
10:30 1020 30.12 849 25.07 2.7 36.9 67 -2.7 27.1
10:35 1020 30.12 850 25.1 2.9 37.2 67 -2.6 27.4
10:40 1020 30.12 850 25.1 2.8 37.1 68 -2.4 27.7
10:45 1020 30.12 850 25.1 2.4 36.3 72 -2.2 28.1
10:50 1020 30.12 850 25.1 1.9 35.4 76 -2 28.5
10:55 1020 30.12 850 25.1 1.4 34.5 80 -1.7 28.9
11:00 1020 30.12 850 25.1 1.4 34.5 81 -1.4 29.4
11:05 1020 30.12 850 25.1 1.3 34.3 85 -0.9 30.3
11:10 1020 30.12 850 25.1 0.9 33.7 87 -0.9 30.3
11:15 1020 30.12 850 25.1 0.7 33.2 89 -0.9 30.4
11:20 1020 30.12 850 25.1 0.4 32.8 91 -0.9 30.4
11:25 1020 30.12 850 25.1 0.1 32.1 93 -1 30.3
11:30 1020 30.12 850 25.1 -0.1 31.9 94 -0.9 30.3
11:35 1020 30.12 850 25.1 -0.1 31.9 93 -1.1 30.1
11:40 1020 30.12 850 25.1 -0.4 31.3 94 -1.2 29.8
11:45 1020 30.12 850 25.1 -0.6 30.9 95 -1.3 29.7
11:50 1020 30.12 850 25.1 -0.5 31.1 96 -1.1 30
11:55 1020 30.12 850 25.1 -0.4 31.4 95 -1 30.2
12:00 1020 30.12 849 25.07 -0.3 31.5 95 -1 30.2
12:05 1020 30.12 849 25.07 -0.1 31.8 95 -0.9 30.4
12:10 1020 30.12 849 25.07 0.2 32.3 93 -0.8 30.6
12:15 1020 30.12 849 25.07 0.3 32.5 91 -1 30.3
12:20 1020 30.12 849 25.07 0.2 32.4 91 -1.1 30
12:25 1020 30.12 849 25.07 0.2 32.4 91 -1.1 30.1
12:30 1020 30.12 849 25.07 0.5 32.9 89 -1 30.1
12:35 1020 30.12 849 25.07 0.6 33 88 -1.3 29.7
12:40 1020 30.12 849 25.07 0.8 33.4 85 -1.6 29.2
12:45 1020 30.12 849 25.07 0.8 33.4 83 -1.7 29
12:50 1020 30.12 849 25.07 0.7 33.2 82 -2.1 28.2
12:55 1020 30.12 849 25.07 0.9 33.7 79 -2.2 28
13:00 1020 30.12 849 25.07 1.4 34.5 79 -1.9 28.5
13:05 1020 30.12 849 25.07 1.3 34.3 80 -1.8 28.7
13:10 1020 30.12 849 25.07 1.2 34.2 78 -2.3 27.9
13:15 1020 30.12 849 25.07 1.2 34.1 81 -1.8 28.8
13:20 1020 30.12 849 25.07 1.3 34.3 79 -2.1 28.3
13:25 1020 30.12 849 25.07 1.2 34.2 78 -2.3 27.9
13:30 1020 30.12 849 25.07 1.3 34.3 80 -1.8 28.8
13:35 1019 30.09 849 25.07 1.4 34.5 77 -2.3 27.9
13:40 1019 30.09 849 25.07 1.3 34.4 75 -2.5 27.4
13:45 1019 30.09 849 25.07 1.4 34.6 73 -2.9 26.8
13:50 1019 30.09 849 25.07 1.7 35 72 -2.8 26.9
13:55 1019 30.09 848 25.04 1.7 35.1 73 -2.7 27.2
14:00 1019 30.09 848 25.04 1.6 34.9 73 -2.7 27.1
14:05 1019 30.09 848 25.04 1.7 35 73 -2.7 27.1
14:10 1019 30.09 848 25.04 1.7 35.1 72 -2.9 26.8
14:15 1019 30.09 848 25.04 1.8 35.3 70 -3 26.5
14:20 1019 30.09 848 25.04 1.7 35.1 71 -3 26.6
14:25 1019 30.09 848 25.04 1.5 34.7 74 -2.6 27.4
14:30 1019 30.09 848 25.04 1.3 34.3 78 -2.2 28.1
14:35 1019 30.09 848 25.04 0.9 33.5 82 -1.9 28.6
14:40 1019 30.09 848 25.04 0.4 32.8 86 -1.7 29
14:45 1019 30.09 848 25.04 0.6 33.1 86 -1.5 29.3
14:50 1019 30.09 848 25.04 0.5 33 85 -1.6 29.1
14:55 1019 30.09 848 25.04 0.5 32.8 85 -1.8 28.7
15:00 1019 30.09 848 25.04 0.6 33.1 84 -1.8 28.8
15:05 1019 30.09 848 25.04 0.6 33.1 84 -1.8 28.8
15:10 1019 30.09 848 25.04 1 33.8 83 -1.5 29.3
15:15 1019 30.09 848 25.04 1.1 34 80 -1.9 28.7
15:20 1019 30.09 848 25.04 1.5 34.7 78 -2 28.4
15:25 1019 30.09 848 25.04 1.6 34.8 76 -2.3 27.9
15:30 1019 30.09 848 25.04 1.6 35 76 -2.1 28.3
15:35 1019 30.09 848 25.04 1.8 35.3 76 -2 28.4
15:40 1019 30.09 848 25.04 1.9 35.4 76 -1.9 28.6
15:45 1019 30.09 848 25.04 1.9 35.5 73 -2.3 27.8
15:50 1019 30.09 848 25.04 2.2 35.9 72 -2.4 27.8
15:55 1019 30.09 848 25.04 2 35.5 73 -2.3 27.8
16:00 1019 30.09 848 25.04 1.9 35.4 71 -2.8 27
16:05 1019 30.09 848 25.04 1.9 35.4 72 -2.6 27.4
16:10 1019 30.09 848 25.04 1.8 35.2 72 -2.7 27.1
16:15 1019 30.09 848 25.04 1.3 34.4 74 -2.8 26.9
16:20 1019 30.09 848 25.04 0.8 33.4 75 -3.1 26.4
16:25 1019 30.09 848 25.04 0.5 33 77 -3.1 26.4
16:30 1019 30.09 848 25.04 0.3 32.5 77 -3.3 26
16:35 1019 30.09 848 25.04 0.2 32.4 76 -3.6 25.5
16:40 1019 30.09 848 25.04 0.3 32.5 74 -3.8 25.2
16:45 1019 30.09 848 25.04 0.5 32.8 74 -3.6 25.6
16:50 1019 30.09 848 25.04 0.3 32.5 74 -3.9 25
16:55 1019 30.09 848 25.04 0.5 32.9 72 -4.1 24.7
17:00 1019 30.09 848 25.04 0.6 33.1 71 -4 24.9
17:05 1019 30.09 848 25.04 0.7 33.3 72 -3.8 25.2
17:10 1019 30.09 848 25.04 0.4 32.7 73 -3.9 25
17:15 1019 30.09 848 25.04 0.2 32.3 72 -4.2 24.4
17:20 1019 30.09 848 25.04 0.4 32.7 71 -4.2 24.5
17:25 1019 30.09 848 25.04 0.4 32.7 71 -4.2 24.4
17:30 1019 30.09 848 25.04 0.2 32.4 72 -4.3 24.2
17:35 1019 30.09 848 25.04 0.3 32.5 72 -4.2 24.4
17:40 1019 30.09 848 25.04 0.3 32.6 72 -4.1 24.6
17:45 1019 30.09 848 25.04 0.3 32.5 73 -4 24.9
17:50 1019 30.09 848 25.04 -0 32 76 -3.8 25.2
17:55 1019 30.09 848 25.04 -0.4 31.3 78 -3.9 25
18:00 1019 30.09 848 25.04 -0.7 30.8 78 -4.1 24.5
18:05 1019 30.09 848 25.04 -0.7 30.7 78 -4.2 24.5
18:10 1019 30.09 848 25.04 -0.5 31 76 -4.3 24.3
18:15 1019 30.09 848 25.04 -0.5 31.1 77 -4 24.8
18:20 1019 30.09 848 25.04 -1 30.1 78 -4.5 24
18:25 1019 30.09 848 25.04 -1.2 29.9 78 -4.5 23.8
18:30 1019 30.09 848 25.04 -1.4 29.5 79 -4.6 23.7
18:35 1019 30.09 848 25.04 -1.5 29.3 78 -4.9 23.3
18:40 1019 30.09 848 25.04 -1.4 29.4 77 -4.9 23.2
18:45 1019 30.09 848 25.04 -1.3 29.6 76 -5 22.9
18:50 1019 30.09 848 25.04 -1.1 30 75 -5 22.9
18:55 1019 30.09 848 25.04 -1.4 29.5 79 -4.5 23.9
19:00 1019 30.09 848 25.04 -1.7 28.9 81 -4.6 23.7
19:05 1019 30.09 848 25.04 -1.8 28.8 81 -4.7 23.6
19:10 1019 30.09 848 25.04 -1.8 28.7 81 -4.7 23.5
19:15 1019 30.09 848 25.04 -1.8 28.7 80 -4.8 23.4
19:20 1019 30.09 849 25.07 -1.7 28.9 79 -4.8 23.3
19:25 1019 30.09 849 25.07 -1.7 28.9 79 -4.9 23.2
19:30 1019 30.09 849 25.07 -1.5 29.3 77 -4.9 23.1
19:35 1019 30.09 849 25.07 -1.4 29.4 77 -5 23
19:40 1019 30.09 849 25.07 -1.5 29.3 76 -5.2 22.6
19:45 1019 30.09 849 25.07 -1.4 29.4 75 -5.4 22.4
19:50 1020 30.12 849 25.07 -1.5 29.3 74 -5.5 22
19:55 1020 30.12 849 25.07 -1.5 29.3 73 -5.7 21.7
20:00 1020 30.12 849 25.07 -1.5 29.3 73 -5.7 21.7
20:05 1020 30.12 849 25.07 -1.6 29.2 73 -5.7 21.7
20:10 1020 30.12 849 25.07 -1.6 29.2 73 -5.8 21.5
20:15 1020 30.12 849 25.07 -1.5 29.3 72 -5.9 21.3
20:20 1020 30.12 849 25.07 -1.5 29.3 73 -5.7 21.7
20:25 1020 30.12 849 25.07 -1.5 29.3 72 -5.9 21.4
20:30 1020 30.12 849 25.07 -1.5 29.3 72 -5.9 21.4
20:35 1020 30.12 849 25.07 -1.6 29.1 73 -5.9 21.4
20:40 1020 30.12 849 25.07 -1.6 29.2 71 -6.1 21.1
20:45 1020 30.12 849 25.07 -1.5 29.2 71 -6.1 21.1
20:50 1020 30.12 849 25.07 -1.5 29.2 71 -6.1 20.9
20:55 1020 30.12 849 25.07 -1.6 29.2 71 -6.1 21
21:00 1020 30.12 849 25.07 -1.6 29.1 70 -6.4 20.5
21:05 1020 30.12 849 25.07 -1.6 29.2 70 -6.4 20.5
21:10 1020 30.12 849 25.07 -1.5 29.2 69 -6.5 20.3
21:15 1020 30.12 849 25.07 -1.6 29.2 69 -6.6 20.1
21:20 1020 30.12 849 25.07 -1.6 29.2 69 -6.6 20.1
21:25 1020 30.12 849 25.07 -1.5 29.2 68 -6.7 20
21:30 1020 30.12 849 25.07 -1.6 29.2 68 -6.8 19.8
21:35 1020 30.12 849 25.07 -1.5 29.4 67 -6.9 19.7
21:40 1020 30.12 849 25.07 -1.4 29.4 69 -6.4 20.4
21:45 1020 30.12 849 25.07 -1.4 29.4 70 -6.1 21
21:50 1020 30.12 849 25.07 -1.7 29 71 -6.3 20.7
21:55 1020 30.12 849 25.07 -1.8 28.8 68 -6.8 19.7
22:00 1020 30.12 849 25.07 -1.7 28.9 69 -6.6 20.1
22:05 1020 30.12 849 25.07 -1.7 28.9 69 -6.8 19.8
22:10 1020 30.12 849 25.07 -1.8 28.7 69 -6.8 19.7
22:15 1020 30.12 849 25.07 -1.9 28.7 70 -6.7 20
22:20 1020 30.12 849 25.07 -2 28.4 71 -6.7 20
22:25 1020 30.12 849 25.07 -2.2 28 72 -6.7 19.9
22:30 1020 30.12 849 25.07 -2.3 27.9 71 -6.8 19.8
22:35 1020 30.12 849 25.07 -2.3 27.9 72 -6.7 19.9
22:40 1020 30.12 850 25.1 -2.2 28 73 -6.5 20.3
22:45 1020 30.12 850 25.1 -2.2 28 73 -6.5 20.3
22:50 1020 30.12 850 25.1 -2.1 28.2 72 -6.4 20.4
22:55 1020 30.12 850 25.1 -1.9 28.6 72 -6.2 20.8
23:00 1020 30.12 850 25.1 -1.9 28.5 72 -6.4 20.5
23:05 1020 30.12 850 25.1 -2 28.4 72 -6.4 20.6
23:10 1020 30.12 850 25.1 -2.1 28.3 73 -6.4 20.6
23:15 1020 30.12 850 25.1 -2 28.4 73 -6.2 20.8
23:20 1021 30.15 850 25.1 -2.2 28.1 73 -6.3 20.7
23:25 1021 30.15 850 25.1 -2.1 28.2 75 -6 21.1
23:30 1021 30.15 850 25.1 -2 28.3 74 -6 21.1
23:35 1021 30.15 850 25.1 -2 28.3 76 -5.7 21.7
23:40 1021 30.15 850 25.1 -2.2 28 75 -6 21.1
23:45 1021 30.15 850 25.1 -2.3 27.9 76 -6 21.2
23:50 1021 30.15 850 25.1 -2.3 27.9 77 -5.8 21.5
23:55 1021 30.15 850 25.1 -2.3 27.8 77 -5.8 21.6
24:00 1021 30.15 850 25.1 -2.4 27.6 80 -5.4 22.4